createdAt,value
2022-08-29T00:00:21.220Z,98697.69
2022-08-29T00:02:48.283Z,98690.97
2022-08-29T00:05:14.696Z,98691.72
2022-08-29T00:07:41.122Z,98688.00
2022-08-29T00:10:07.880Z,98689.66
2022-08-29T00:12:34.245Z,98696.69
2022-08-29T00:15:00.703Z,98689.88
2022-08-29T00:17:27.054Z,98686.38
2022-08-29T00:19:53.440Z,98685.38
2022-08-29T00:22:19.812Z,98683.31
2022-08-29T00:24:46.330Z,98679.72
2022-08-29T00:27:12.697Z,98675.34
2022-08-29T00:29:39.745Z,98677.84
2022-08-29T00:32:06.207Z,98676.84
2022-08-29T00:34:32.686Z,98682.28
2022-08-29T00:36:59.056Z,98672.44
2022-08-29T00:39:25.452Z,98674.44
2022-08-29T00:41:53.271Z,98672.34
2022-08-29T00:44:19.861Z,98674.44
2022-08-29T00:46:47.444Z,98678.56
2022-08-29T00:49:19.175Z,98677.53
2022-08-29T00:51:45.535Z,98678.19
2022-08-29T00:54:11.915Z,98674.06
2022-08-29T00:56:38.813Z,98674.06
2022-08-29T00:59:14.362Z,98683.44
2022-08-29T01:01:40.729Z,98692.34
2022-08-29T01:04:09.833Z,98690.84
2022-08-29T01:06:42.503Z,98695.94
2022-08-29T01:09:08.892Z,98698.38
2022-08-29T01:11:54.120Z,98693.50
2022-08-29T01:14:20.906Z,98691.84
2022-08-29T01:16:47.359Z,98700.75
2022-08-29T01:19:27.854Z,98697.75
2022-08-29T01:21:59.941Z,98702.97
2022-08-29T01:24:43.705Z,98692.91
2022-08-29T01:27:10.089Z,98694.19
2022-08-29T01:29:36.500Z,98701.41
2022-08-29T01:32:03.182Z,98699.66
2022-08-29T01:34:29.644Z,98693.16
2022-08-29T01:37:00.048Z,98692.47
2022-08-29T01:39:27.783Z,98696.84
2022-08-29T01:41:54.220Z,98702.88
2022-08-29T01:44:20.901Z,98704.63
2022-08-29T01:46:48.054Z,98707.75
2022-08-29T01:49:14.571Z,98699.88
2022-08-29T01:51:41.310Z,98711.69
2022-08-29T01:54:07.919Z,98724.41
2022-08-29T01:56:35.124Z,98718.50
2022-08-29T01:59:01.765Z,98715.06
2022-08-29T02:01:32.995Z,98715.06
2022-08-29T02:03:59.434Z,98717.50
2022-08-29T02:06:26.068Z,98717.38
2022-08-29T02:08:52.422Z,98724.06
2022-08-29T02:11:18.779Z,98727.41
2022-08-29T02:13:46.467Z,98725.56
2022-08-29T02:16:13.207Z,98720.22
2022-08-29T02:18:42.332Z,98722.88
2022-08-29T02:21:08.907Z,98725.53
2022-08-29T02:23:35.546Z,98717.19
2022-08-29T02:26:01.905Z,98714.66
2022-08-29T02:28:30.605Z,98705.63
2022-08-29T02:30:57.153Z,98721.00
2022-08-29T02:33:23.522Z,98707.50
2022-08-29T02:35:49.894Z,98710.34
2022-08-29T02:38:16.356Z,98710.47
2022-08-29T02:40:42.782Z,98709.66
2022-08-29T02:43:09.169Z,98706.88
2022-08-29T02:45:40.161Z,98705.88
2022-08-29T02:48:06.674Z,98695.72
2022-08-29T02:50:33.318Z,98704.25
2022-08-29T02:52:59.698Z,98691.66
2022-08-29T02:55:26.109Z,98699.63
2022-08-29T02:57:52.995Z,98698.22
2022-08-29T03:00:20.456Z,98696.13
2022-08-29T03:02:47.350Z,98697.84
2022-08-29T03:05:14.355Z,98700.03
2022-08-29T03:07:40.697Z,98699.84
2022-08-29T03:10:07.560Z,98701.13
2022-08-29T03:12:34.516Z,98710.00
2022-08-29T03:15:00.936Z,98707.56
2022-08-29T03:17:27.285Z,98710.25
2022-08-29T03:19:53.667Z,98704.50
2022-08-29T03:22:20.005Z,98692.13
2022-08-29T03:24:46.506Z,98697.09
2022-08-29T03:27:12.979Z,98691.78
2022-08-29T03:29:39.400Z,98692.22
2022-08-29T03:32:05.755Z,98707.50
2022-08-29T03:34:32.960Z,98704.72
2022-08-29T03:36:59.315Z,98696.94
2022-08-29T03:39:25.686Z,98700.13
2022-08-29T03:41:52.034Z,98705.53
2022-08-29T03:44:18.381Z,98711.75
2022-08-29T03:46:44.755Z,98703.91
2022-08-29T03:49:13.144Z,98711.38
2022-08-29T03:51:39.497Z,98709.41
2022-08-29T03:54:06.027Z,98711.81
2022-08-29T03:56:32.576Z,98707.69
2022-08-29T03:58:58.931Z,98712.53
2022-08-29T04:01:26.855Z,98712.09
2022-08-29T04:03:53.287Z,98713.84
2022-08-29T04:06:19.683Z,98711.50
2022-08-29T04:08:47.214Z,98710.25
2022-08-29T04:11:14.137Z,98715.22
2022-08-29T04:13:40.724Z,98716.78
2022-08-29T04:16:17.602Z,98712.19
2022-08-29T04:18:44.014Z,98713.47
2022-08-29T04:21:10.454Z,98713.53
2022-08-29T04:23:37.296Z,98718.72
2022-08-29T04:26:30.149Z,98714.69
2022-08-29T04:28:50.085Z,98718.25
2022-08-29T04:31:21.174Z,98718.97
2022-08-29T04:33:47.851Z,98717.13
2022-08-29T04:36:15.037Z,98723.38
2022-08-29T04:38:41.599Z,98723.94
2022-08-29T04:41:08.187Z,98728.25
2022-08-29T04:43:34.556Z,98728.00
2022-08-29T04:46:00.965Z,98722.56
2022-08-29T04:48:27.487Z,98718.72
2022-08-29T04:50:57.147Z,98719.88
2022-08-29T04:53:23.956Z,98719.66
2022-08-29T04:55:59.798Z,98726.94
2022-08-29T04:58:26.157Z,98724.63
2022-08-29T05:00:52.887Z,98727.75
2022-08-29T05:03:19.818Z,98726.31
2022-08-29T05:05:46.191Z,98726.22
2022-08-29T05:08:12.629Z,98731.72
2022-08-29T05:10:39.493Z,98723.03
2022-08-29T05:13:05.839Z,98727.97
2022-08-29T05:15:32.305Z,98729.44
2022-08-29T05:17:58.683Z,98717.56
2022-08-29T05:20:25.055Z,98720.84
2022-08-29T05:22:51.416Z,98720.25
2022-08-29T05:25:18.629Z,98719.19
2022-08-29T05:27:45.382Z,98712.34
2022-08-29T05:30:11.805Z,98718.97
2022-08-29T05:32:39.101Z,98721.50
2022-08-29T05:35:05.657Z,98716.75
2022-08-29T05:37:32.016Z,98741.59
2022-08-29T05:39:58.477Z,98743.41
2022-08-29T05:42:26.360Z,98749.03
2022-08-29T05:44:52.767Z,98752.25
2022-08-29T05:47:19.354Z,98749.97
2022-08-29T05:49:45.962Z,98749.50
2022-08-29T05:52:12.702Z,98744.53
2022-08-29T05:54:39.378Z,98744.72
2022-08-29T05:57:06.167Z,98750.28
2022-08-29T05:59:32.628Z,98753.91
2022-08-29T06:01:58.979Z,98753.16
2022-08-29T06:04:25.460Z,98760.00
2022-08-29T06:06:51.814Z,98753.19
2022-08-29T06:09:18.212Z,98754.50
2022-08-29T06:11:48.386Z,98750.78
2022-08-29T06:14:15.007Z,98757.16
2022-08-29T06:16:41.357Z,98753.91
2022-08-29T06:19:07.771Z,98753.09
2022-08-29T06:21:34.132Z,98754.25
2022-08-29T06:24:00.501Z,98761.50
2022-08-29T06:26:26.883Z,98763.06
2022-08-29T06:28:53.353Z,98770.22
2022-08-29T06:31:21.460Z,98761.69
2022-08-29T06:33:49.978Z,98760.88
2022-08-29T06:36:16.415Z,98771.31
2022-08-29T06:38:42.812Z,98771.34
2022-08-29T06:41:10.423Z,98768.47
2022-08-29T06:43:36.786Z,98775.94
2022-08-29T06:46:03.341Z,98771.88
2022-08-29T06:48:29.865Z,98774.19
2022-08-29T06:50:56.362Z,98777.88
2022-08-29T06:53:31.827Z,98775.00
2022-08-29T06:56:03.087Z,98773.91
2022-08-29T06:58:29.475Z,98768.47
2022-08-29T07:00:55.832Z,98780.53
2022-08-29T07:03:23.008Z,98776.34
2022-08-29T07:05:53.405Z,98776.13
2022-08-29T07:08:19.922Z,98780.28
2022-08-29T07:10:46.427Z,98777.16
2022-08-29T07:13:12.790Z,98793.47
2022-08-29T07:15:39.181Z,98790.13
2022-08-29T07:18:05.608Z,98794.63
2022-08-29T07:20:32.015Z,98794.66
2022-08-29T07:22:58.376Z,98794.59
2022-08-29T07:25:24.941Z,98804.22
2022-08-29T07:27:53.300Z,98808.56
2022-08-29T07:30:20.711Z,98806.09
2022-08-29T07:32:47.124Z,98805.97
2022-08-29T07:35:13.757Z,98805.84
2022-08-29T07:37:40.247Z,98809.06
2022-08-29T07:40:07.481Z,98811.69
2022-08-29T07:42:37.091Z,98810.63
2022-08-29T07:45:07.081Z,98812.06
2022-08-29T07:47:34.749Z,98811.69
2022-08-29T07:50:04.960Z,98811.44
2022-08-29T07:52:31.343Z,98814.78
2022-08-29T07:54:57.754Z,98813.84
2022-08-29T07:57:24.262Z,98811.97
2022-08-29T07:59:50.672Z,98823.19
2022-08-29T08:02:17.192Z,98817.59
2022-08-29T08:04:43.643Z,98814.53
2022-08-29T08:07:14.029Z,98807.94
2022-08-29T08:09:41.310Z,98804.97
2022-08-29T08:12:08.574Z,98805.53
2022-08-29T08:14:35.364Z,98815.75
2022-08-29T08:17:01.800Z,98802.84
2022-08-29T08:19:28.207Z,98813.06
2022-08-29T08:21:54.588Z,98811.56
2022-08-29T08:24:20.987Z,98814.56
2022-08-29T08:26:48.458Z,98813.19
2022-08-29T08:29:14.874Z,98814.16
2022-08-29T08:31:44.729Z,98818.94
2022-08-29T08:34:13.621Z,98825.53
2022-08-29T08:36:42.681Z,98832.28
2022-08-29T08:39:09.051Z,98827.13
2022-08-29T08:41:46.814Z,98835.63
2022-08-29T08:44:14.752Z,98837.16
2022-08-29T08:46:42.032Z,98839.13
2022-08-29T08:49:16.745Z,98837.28
2022-08-29T08:51:43.721Z,98845.63
2022-08-29T08:54:12.343Z,98838.75
2022-08-29T08:56:39.027Z,98846.41
2022-08-29T08:59:07.657Z,98834.69
2022-08-29T09:01:34.907Z,98839.78
2022-08-29T09:04:13.919Z,98840.06
2022-08-29T09:06:53.286Z,98835.03
2022-08-29T09:09:22.691Z,98829.53
2022-08-29T09:11:56.160Z,98834.09
2022-08-29T09:14:34.810Z,98833.88
2022-08-29T09:17:01.202Z,98835.03
2022-08-29T09:19:27.581Z,98833.28
2022-08-29T09:21:55.314Z,98837.91
2022-08-29T09:24:35.800Z,98830.06
2022-08-29T09:27:02.379Z,98829.19
2022-08-29T09:29:29.558Z,98831.25
2022-08-29T09:32:10.131Z,98837.88
2022-08-29T09:35:04.356Z,98836.75
2022-08-29T09:37:31.343Z,98837.59
2022-08-29T09:39:59.124Z,98841.31
2022-08-29T09:42:29.101Z,98841.31
2022-08-29T09:44:56.123Z,98838.78
2022-08-29T09:47:23.811Z,98830.44
2022-08-29T09:50:10.754Z,98838.44
2022-08-29T09:52:37.973Z,98837.69
2022-08-29T09:55:19.764Z,98844.06
2022-08-29T09:57:49.903Z,98844.94
2022-08-29T10:00:17.475Z,98842.13
2022-08-29T10:02:43.921Z,98852.16
2022-08-29T10:05:13.276Z,98854.25
2022-08-29T10:07:46.868Z,98853.94
2022-08-29T10:10:20.614Z,98854.03
2022-08-29T10:12:52.396Z,98844.31
2022-08-29T10:15:46.623Z,98851.22
2022-08-29T10:18:32.587Z,98843.06
2022-08-29T10:20:59.047Z,98847.56
2022-08-29T10:23:45.449Z,98849.19
2022-08-29T10:26:21.208Z,98844.41
2022-08-29T10:28:57.304Z,98832.31
2022-08-29T10:31:30.052Z,98837.53
2022-08-29T10:34:09.603Z,98843.16
2022-08-29T10:36:37.512Z,98851.19
2022-08-29T10:39:17.271Z,98850.81
2022-08-29T10:41:50.261Z,98851.63
2022-08-29T10:44:19.627Z,98837.50
2022-08-29T10:47:01.242Z,98852.44
2022-08-29T10:49:46.633Z,98846.34
2022-08-29T10:52:22.400Z,98841.13
2022-08-29T10:55:10.748Z,98843.50
2022-08-29T10:57:37.266Z,98843.56
2022-08-29T11:00:08.593Z,98858.00
2022-08-29T11:02:37.312Z,98849.53
2022-08-29T11:05:06.951Z,98853.16
2022-08-29T11:07:34.643Z,98857.06
2022-08-29T11:10:03.396Z,98858.00
2022-08-29T11:12:33.279Z,98854.78
2022-08-29T11:15:00.603Z,98851.56
2022-08-29T11:17:29.760Z,98860.03
2022-08-29T11:20:09.433Z,98856.00
2022-08-29T11:22:37.018Z,98855.22
2022-08-29T11:25:05.888Z,98858.41
2022-08-29T11:27:34.746Z,98859.63
2022-08-29T11:30:02.940Z,98863.63
2022-08-29T11:32:39.601Z,98854.72
2022-08-29T11:35:15.065Z,98854.31
2022-08-29T11:37:41.430Z,98854.38
2022-08-29T11:40:15.316Z,98856.25
2022-08-29T11:42:57.496Z,98857.94
2022-08-29T11:45:35.343Z,98857.16
2022-08-29T11:48:17.129Z,98857.94
2022-08-29T11:50:43.514Z,98849.59
2022-08-29T11:53:16.852Z,98850.41
2022-08-29T11:55:43.880Z,98851.16
2022-08-29T11:58:16.410Z,98839.88
2022-08-29T12:00:54.795Z,98840.31
2022-08-29T12:03:34.079Z,98837.41
2022-08-29T12:06:19.111Z,98837.34
2022-08-29T12:09:00.688Z,98820.72
2022-08-29T12:11:48.263Z,98824.06
2022-08-29T12:14:37.958Z,98818.56
2022-08-29T12:17:51.203Z,98824.97
2022-08-29T12:20:17.025Z,98820.34
2022-08-29T12:22:49.505Z,98820.84
2022-08-29T12:25:28.161Z,98809.75
2022-08-29T12:28:00.208Z,98824.34
2022-08-29T12:30:27.005Z,98816.66
2022-08-29T12:32:56.864Z,98812.56
2022-08-29T12:35:46.365Z,98813.47
2022-08-29T12:38:22.819Z,98813.97
2022-08-29T12:40:52.208Z,98805.19
2022-08-29T12:43:33.409Z,98811.44
2022-08-29T12:45:59.904Z,98814.06
2022-08-29T12:48:33.457Z,98807.97
2022-08-29T12:51:00.773Z,98805.41
2022-08-29T12:53:29.832Z,98797.03
2022-08-29T12:55:57.167Z,98796.66
2022-08-29T12:58:31.105Z,98790.97
2022-08-29T13:00:57.579Z,98796.75
2022-08-29T13:03:24.250Z,98791.34
2022-08-29T13:05:50.623Z,98788.34
2022-08-29T13:08:30.192Z,98777.75
2022-08-29T13:11:00.991Z,98780.34
2022-08-29T13:13:27.393Z,98775.50
2022-08-29T13:15:54.521Z,98769.81
2022-08-29T13:18:21.392Z,98763.16
2022-08-29T13:21:03.159Z,98766.50
2022-08-29T13:23:29.545Z,98760.84
2022-08-29T13:25:55.913Z,98770.47
2022-08-29T13:28:29.689Z,98768.81
2022-08-29T13:31:11.349Z,98768.63
2022-08-29T13:33:38.544Z,98770.06
2022-08-29T13:36:23.703Z,98766.91
2022-08-29T13:39:09.997Z,98753.44
2022-08-29T13:41:37.541Z,98749.63
2022-08-29T13:44:03.942Z,98755.13
2022-08-29T13:46:30.634Z,98745.84
2022-08-29T13:48:57.853Z,98739.63
2022-08-29T13:51:24.243Z,98740.72
2022-08-29T13:53:53.694Z,98741.34
2022-08-29T13:56:28.964Z,98734.53
2022-08-29T13:58:58.381Z,98746.22
2022-08-29T14:02:08.426Z,98747.81
2022-08-29T14:04:36.767Z,98752.63
2022-08-29T14:06:57.825Z,98736.84
2022-08-29T14:09:37.350Z,98744.28
2022-08-29T14:12:04.053Z,98748.50
2022-08-29T14:14:30.436Z,98749.03
2022-08-29T14:16:56.972Z,98740.78
2022-08-29T14:19:23.662Z,98740.00
2022-08-29T14:21:50.183Z,98741.28
2022-08-29T14:24:16.675Z,98740.75
2022-08-29T14:26:43.058Z,98742.13
2022-08-29T14:29:09.422Z,98740.34
2022-08-29T14:31:36.120Z,98746.63
2022-08-29T14:34:02.547Z,98738.41
2022-08-29T14:36:30.251Z,98735.81
2022-08-29T14:38:56.717Z,98738.75
2022-08-29T14:41:23.157Z,98729.22
2022-08-29T14:43:49.536Z,98731.16
2022-08-29T14:46:15.985Z,98729.13
2022-08-29T14:48:42.421Z,98724.41
2022-08-29T14:51:08.774Z,98722.31
2022-08-29T14:53:47.012Z,98723.81
2022-08-29T14:56:44.741Z,98724.69
2022-08-29T14:59:09.244Z,98725.81
2022-08-29T15:01:35.719Z,98719.63
2022-08-29T15:04:02.205Z,98722.19
2022-08-29T15:06:28.781Z,98718.81
2022-08-29T15:08:55.187Z,98718.34
2022-08-29T15:11:21.555Z,98714.63
2022-08-29T15:13:47.940Z,98711.59
2022-08-29T15:16:14.459Z,98713.50
2022-08-29T15:19:24.890Z,98714.16
2022-08-29T15:21:27.250Z,98721.59
2022-08-29T15:23:53.613Z,98722.78
2022-08-29T15:26:20.070Z,98715.22
2022-08-29T15:28:46.432Z,98717.13
2022-08-29T15:31:13.215Z,98720.56
2022-08-29T15:33:39.696Z,98722.31
2022-08-29T15:36:06.169Z,98719.06
2022-08-29T15:38:32.548Z,98713.34
2022-08-29T15:40:58.952Z,98711.78
2022-08-29T15:43:25.397Z,98706.97
2022-08-29T15:45:57.274Z,98706.91
2022-08-29T15:48:25.642Z,98707.28
2022-08-29T15:50:52.343Z,98700.22
2022-08-29T15:53:18.899Z,98702.56
2022-08-29T15:55:45.271Z,98709.44
2022-08-29T15:58:11.703Z,98702.31
2022-08-29T16:00:38.107Z,98695.84
2022-08-29T16:03:04.629Z,98709.25
2022-08-29T16:05:31.464Z,98708.81
2022-08-29T16:07:57.847Z,98698.53
2022-08-29T16:10:24.209Z,98695.91
2022-08-29T16:12:50.589Z,98692.09
2022-08-29T16:15:17.075Z,98694.06
2022-08-29T16:17:43.472Z,98687.13
2022-08-29T16:20:11.417Z,98692.00
2022-08-29T16:22:38.440Z,98692.34
2022-08-29T16:25:06.617Z,98686.81
2022-08-29T16:27:33.060Z,98688.09
2022-08-29T16:29:59.421Z,98678.84
2022-08-29T16:32:25.852Z,98677.38
2022-08-29T16:34:52.381Z,98681.84
2022-08-29T16:37:18.959Z,98675.38
2022-08-29T16:39:45.699Z,98673.41
2022-08-29T16:42:12.242Z,98683.09
2022-08-29T16:47:05.141Z,98676.72
2022-08-29T16:49:31.640Z,98680.41
2022-08-29T16:51:58.095Z,98680.91
2022-08-29T16:54:24.477Z,98681.34
2022-08-29T16:56:51.847Z,98684.63
2022-08-29T16:59:18.241Z,98682.56
2022-08-29T17:01:45.755Z,98681.41
2022-08-29T17:04:13.194Z,98675.50
2022-08-29T17:06:39.595Z,98678.41
2022-08-29T17:09:09.908Z,98679.34
2022-08-29T17:11:37.083Z,98679.81
2022-08-29T17:14:03.679Z,98681.84
2022-08-29T17:16:30.099Z,98679.44
2022-08-29T17:18:56.571Z,98684.28
2022-08-29T17:21:22.959Z,98674.22
2022-08-29T17:23:49.829Z,98675.00
2022-08-29T17:26:16.512Z,98668.19
2022-08-29T17:28:42.924Z,98673.44
2022-08-29T17:31:09.486Z,98666.59
2022-08-29T17:33:36.036Z,98672.22
2022-08-29T17:36:03.111Z,98674.59
2022-08-29T17:38:31.039Z,98670.50
2022-08-29T17:41:01.293Z,98664.44
2022-08-29T17:43:31.189Z,98674.50
2022-08-29T17:45:57.738Z,98668.03
2022-08-29T17:48:24.172Z,98664.00
2022-08-29T17:50:50.578Z,98665.63
2022-08-29T17:53:17.093Z,98664.38
2022-08-29T17:55:43.498Z,98664.34
2022-08-29T17:58:09.867Z,98659.91
2022-08-29T18:00:36.373Z,98668.69
2022-08-29T18:03:03.650Z,98668.63
2022-08-29T18:05:30.018Z,98670.25
2022-08-29T18:07:57.059Z,98667.81
2022-08-29T18:10:23.504Z,98673.75
2022-08-29T18:12:49.865Z,98671.19
2022-08-29T18:15:16.547Z,98669.94
2022-08-29T18:17:45.222Z,98673.47
2022-08-29T18:20:12.221Z,98675.50
2022-08-29T18:22:39.701Z,98671.94
2022-08-29T18:25:06.871Z,98670.69
2022-08-29T18:27:33.739Z,98674.94
2022-08-29T18:30:01.982Z,98681.75
2022-08-29T18:32:28.492Z,98678.63
2022-08-29T18:35:03.117Z,98684.28
2022-08-29T18:37:29.533Z,98681.19
2022-08-29T18:39:55.935Z,98681.84
2022-08-29T18:42:39.397Z,98683.81
2022-08-29T18:45:06.334Z,98685.44
2022-08-29T18:47:32.802Z,98681.84
2022-08-29T18:50:17.964Z,98685.13
2022-08-29T18:52:45.912Z,98690.66
2022-08-29T18:55:15.712Z,98695.91
2022-08-29T18:57:44.923Z,98696.16
2022-08-29T19:00:11.574Z,98691.97
2022-08-29T19:02:38.042Z,98692.22
2022-08-29T19:05:05.043Z,98703.81
2022-08-29T19:07:32.427Z,98710.66
2022-08-29T19:09:58.785Z,98703.22
2022-08-29T19:12:25.142Z,98703.25
2022-08-29T19:14:51.512Z,98704.44
2022-08-29T19:17:17.883Z,98706.81
2022-08-29T19:20:03.060Z,98706.81
2022-08-29T19:22:38.157Z,98704.78
2022-08-29T19:25:05.713Z,98712.34
2022-08-29T19:27:42.805Z,98708.25
2022-08-29T19:30:11.036Z,98711.09
2022-08-29T19:32:37.434Z,98711.41
2022-08-29T19:35:03.925Z,98714.13
2022-08-29T19:37:30.321Z,98718.88
2022-08-29T19:39:56.891Z,98711.28
2022-08-29T19:42:23.939Z,98713.63
2022-08-29T19:44:50.398Z,98712.06
2022-08-29T19:47:16.771Z,98706.38
2022-08-29T19:49:45.362Z,98712.34
2022-08-29T19:52:11.991Z,98711.09
2022-08-29T19:54:39.058Z,98705.03
2022-08-29T19:57:10.317Z,98704.50
2022-08-29T19:59:42.280Z,98703.28
2022-08-29T20:02:10.025Z,98701.28
2022-08-29T20:04:36.506Z,98703.84
2022-08-29T20:07:02.889Z,98699.91
2022-08-29T20:09:29.808Z,98704.63
2022-08-29T20:11:56.802Z,98697.47
2022-08-29T20:14:23.253Z,98709.59
2022-08-29T20:16:49.656Z,98707.19
2022-08-29T20:19:18.845Z,98714.31
2022-08-29T20:21:45.721Z,98714.44
2022-08-29T20:24:13.635Z,98724.78
2022-08-29T20:26:42.781Z,98728.84
2022-08-29T20:29:10.405Z,98724.47
2022-08-29T20:31:36.921Z,98724.19
2022-08-29T20:34:03.486Z,98722.53
2022-08-29T20:36:48.550Z,98728.50
2022-08-29T20:39:16.092Z,98728.78
2022-08-29T20:41:42.484Z,98732.00
2022-08-29T20:44:10.129Z,98730.97
2022-08-29T20:46:40.421Z,98732.13
2022-08-29T20:49:07.342Z,98746.22
2022-08-29T20:51:35.070Z,98739.56
2022-08-29T20:54:01.496Z,98742.28
2022-08-29T20:56:27.880Z,98736.44
2022-08-29T20:58:54.263Z,98743.22
2022-08-29T21:01:21.399Z,98739.19
2022-08-29T21:04:08.521Z,98745.22
2022-08-29T21:06:35.550Z,98746.50
2022-08-29T21:09:01.939Z,98743.72
2022-08-29T21:11:28.294Z,98755.41
2022-08-29T21:13:55.352Z,98751.34
2022-08-29T21:16:21.856Z,98755.97
2022-08-29T21:18:52.408Z,98758.38
2022-08-29T21:21:20.343Z,98756.47
2022-08-29T21:23:48.571Z,98751.19
2022-08-29T21:26:14.980Z,98751.91
2022-08-29T21:28:43.338Z,98760.78
2022-08-29T21:31:12.441Z,98760.03
2022-08-29T21:33:39.453Z,98763.44
2022-08-29T21:36:09.710Z,98758.41
2022-08-29T21:38:36.079Z,98762.13
2022-08-29T21:41:02.534Z,98761.13
2022-08-29T21:43:28.957Z,98764.28
2022-08-29T21:45:55.429Z,98755.38
2022-08-29T21:48:21.891Z,98754.56
2022-08-29T21:50:53.435Z,98753.19
2022-08-29T21:53:20.121Z,98753.84
2022-08-29T21:55:46.487Z,98757.06
2022-08-29T21:58:13.403Z,98753.59
2022-08-29T22:00:42.025Z,98755.28
2022-08-29T22:03:08.959Z,98756.13
2022-08-29T22:05:35.447Z,98758.91
2022-08-29T22:08:06.573Z,98759.97
2022-08-29T22:10:33.948Z,98759.00
2022-08-29T22:13:00.340Z,98747.81
2022-08-29T22:15:45.442Z,98754.69
2022-08-29T22:18:14.549Z,98758.72
2022-08-29T22:20:41.484Z,98758.13
2022-08-29T22:23:07.953Z,98757.84
2022-08-29T22:25:34.387Z,98766.81
2022-08-29T22:28:00.775Z,98763.47
2022-08-29T22:30:32.096Z,98764.94
2022-08-29T22:33:00.066Z,98771.69
2022-08-29T22:35:27.550Z,98772.34
2022-08-29T22:37:54.564Z,98768.69
2022-08-29T22:40:21.282Z,98770.81
2022-08-29T22:42:47.764Z,98780.28
2022-08-29T22:45:14.895Z,98773.03
2022-08-29T22:47:41.602Z,98779.00
2022-08-29T22:50:10.204Z,98770.78
2022-08-29T22:52:36.642Z,98761.28
2022-08-29T22:55:04.863Z,98771.53
2022-08-29T22:57:31.248Z,98776.63
2022-08-29T22:59:57.643Z,98774.94
2022-08-29T23:02:24.290Z,98769.75
2022-08-29T23:04:50.991Z,98771.09
2022-08-29T23:07:17.351Z,98768.63
2022-08-29T23:09:43.727Z,98772.53
2022-08-29T23:12:10.258Z,98761.28
2022-08-29T23:14:37.287Z,98762.97
2022-08-29T23:17:04.343Z,98772.25
2022-08-29T23:19:31.118Z,98768.09
2022-08-29T23:21:58.004Z,98774.22
2022-08-29T23:24:26.217Z,98767.69
2022-08-29T23:26:52.628Z,98770.09
2022-08-29T23:29:19.504Z,98764.38
2022-08-29T23:31:46.279Z,98775.84
2022-08-29T23:34:12.812Z,98768.19
2022-08-29T23:36:39.195Z,98771.91
2022-08-29T23:39:05.812Z,98780.75
2022-08-29T23:41:32.219Z,98775.41
2022-08-29T23:43:58.875Z,98773.31
2022-08-29T23:46:25.292Z,98777.47
2022-08-29T23:48:51.711Z,98778.19
2022-08-29T23:51:18.100Z,98774.91
2022-08-29T23:53:44.558Z,98774.81
2022-08-29T23:56:12.333Z,98782.84
2022-08-29T23:58:38.860Z,98779.91
